Time;durP1;ratioP1;P1;durP2;ratioP2;P2;SDS_P1;SDS_P2;PMS_P1;PMS_P2;Temp;Humidity;BMP_temperature;BMP_pressure;BME280_temperature;BME280_humidity;BME280_pressure;Samples;Min_cycle;Max_cycle;Signal;HPM_P1;HPM_P2
2022/04/09 00:01:44;;;;;;;2.72;0.73;;;8.90;91.90;;;;;;10352932;28;20050;-71
2022/04/09 00:06:45;;;;;;;3.38;1.00;;;8.90;91.90;;;;;;10360327;28;20121;-75
2022/04/09 00:11:46;;;;;;;2.90;0.80;;;8.90;91.90;;;;;;10347431;28;20048;-71
2022/04/09 00:16:47;;;;;;;3.22;1.08;;;8.90;91.90;;;;;;10356519;28;20061;-68
2022/04/09 00:21:47;;;;;;;3.78;0.95;;;8.90;91.90;;;;;;10358100;28;20047;-73
2022/04/09 00:26:48;;;;;;;2.85;1.10;;;8.90;92.00;;;;;;10352268;28;20058;-75
2022/04/09 00:31:49;;;;;;;4.82;0.85;;;8.90;92.00;;;;;;10365283;28;20033;-66
2022/04/09 00:36:49;;;;;;;3.08;1.00;;;8.90;92.00;;;;;;10364611;28;20030;-64
2022/04/09 00:41:50;;;;;;;3.78;0.95;;;8.80;91.90;;;;;;10361587;28;20369;-71
2022/04/09 00:46:51;;;;;;;4.82;0.88;;;8.80;91.90;;;;;;10364839;28;20033;-72
2022/04/09 00:51:54;;;;;;;2.70;1.08;;;8.80;91.90;;;;;;10364042;28;20026;-73
2022/04/09 00:57:05;;;;;;;2.88;1.00;;;8.80;92.00;;;;;;10355062;28;20393;-76
2022/04/09 01:02:05;;;;;;;2.17;0.63;;;8.80;92.00;;;;;;10350439;28;20038;-72
2022/04/09 01:07:08;;;;;;;5.68;1.02;;;8.80;92.00;;;;;;10352152;28;20022;-74
2022/04/09 01:12:09;;;;;;;1.35;0.60;;;8.80;92.00;;;;;;10350281;28;20053;-67
2022/04/09 01:17:10;;;;;;;3.17;0.73;;;8.80;92.00;;;;;;10361614;28;20022;-75
2022/04/09 01:22:10;;;;;;;3.42;0.80;;;8.80;92.00;;;;;;10347535;28;20551;-66
2022/04/09 01:27:11;;;;;;;3.83;1.13;;;8.80;92.00;;;;;;10353189;28;20057;-73
2022/04/09 01:32:12;;;;;;;2.25;0.60;;;8.90;92.00;;;;;;10362704;28;20034;-67
2022/04/09 01:37:14;;;;;;;3.15;0.70;;;8.90;92.00;;;;;;10353751;28;20033;-73
2022/04/09 01:42:15;;;;;;;2.40;0.80;;;8.80;92.00;;;;;;10362332;28;20455;-70
2022/04/09 01:47:16;;;;;;;4.07;0.93;;;8.80;92.00;;;;;;10352820;28;20344;-72
2022/04/09 01:52:16;;;;;;;2.72;0.63;;;8.80;92.00;;;;;;10361591;28;20026;-69
2022/04/09 01:57:17;;;;;;;1.42;0.60;;;8.70;92.00;;;;;;10349757;28;20076;-74
2022/04/09 02:02:18;;;;;;;2.67;0.60;;;8.70;92.00;;;;;;10349961;28;20471;-68
2022/04/09 02:07:19;;;;;;;1.95;0.40;;;8.70;92.00;;;;;;10352024;28;20030;-64
2022/04/09 02:12:20;;;;;;;3.00;0.80;;;8.70;92.00;;;;;;10361672;28;20037;-75
2022/04/09 02:17:21;;;;;;;2.92;0.70;;;8.70;92.00;;;;;;10351582;28;20030;-71
2022/04/09 02:22:23;;;;;;;2.88;0.40;;;8.70;92.00;;;;;;10346700;28;20565;-75
2022/04/09 02:27:24;;;;;;;2.83;0.60;;;8.70;92.10;;;;;;10350498;28;20081;-75
2022/04/09 02:32:25;;;;;;;4.07;0.70;;;8.70;92.10;;;;;;10360888;28;20052;-75
2022/04/09 02:37:25;;;;;;;4.07;0.80;;;8.70;92.10;;;;;;10362107;28;20064;-68
2022/04/09 02:42:26;;;;;;;2.67;0.90;;;8.60;92.10;;;;;;10361093;28;20056;-66
2022/04/09 02:47:27;;;;;;;4.25;0.70;;;8.60;92.10;;;;;;10361195;28;20033;-69
2022/04/09 02:52:33;;;;;;;2.50;0.93;;;8.60;92.10;;;;;;10360677;28;20037;-63
2022/04/09 02:57:34;;;;;;;4.00;0.65;;;8.60;92.10;;;;;;10348006;28;20026;-75
2022/04/09 03:02:36;;;;;;;2.22;0.70;;;8.60;92.10;;;;;;10350132;28;20038;-71
2022/04/09 03:07:37;;;;;;;2.70;0.55;;;8.60;92.10;;;;;;10350380;28;20218;-64
2022/04/09 03:12:45;;;;;;;3.03;0.45;;;8.70;92.10;;;;;;10362363;28;20022;-69
2022/04/09 03:17:46;;;;;;;1.90;1.13;;;8.60;92.10;;;;;;10357281;28;20049;-72
2022/04/09 03:22:48;;;;;;;4.07;0.60;;;8.60;92.10;;;;;;10352917;28;20042;-76
2022/04/09 03:27:48;;;;;;;0.82;0.40;;;8.50;92.10;;;;;;10358146;28;20062;-75
2022/04/09 03:32:49;;;;;;;0.98;0.50;;;8.60;92.10;;;;;;10369643;28;20433;-72
2022/04/09 03:37:50;;;;;;;1.05;0.50;;;8.50;92.10;;;;;;10367412;28;20046;-75
2022/04/09 03:42:50;;;;;;;3.25;0.90;;;8.70;92.20;;;;;;10368671;28;20038;-76
2022/04/09 03:47:51;;;;;;;2.65;0.80;;;8.50;92.10;;;;;;10367803;28;20029;-63
2022/04/09 03:52:52;;;;;;;2.78;0.50;;;8.50;92.10;;;;;;10367070;28;20038;-65
2022/04/09 03:57:53;;;;;;;3.33;1.00;;;8.50;92.20;;;;;;10353056;28;20030;-69
2022/04/09 04:02:54;;;;;;;4.80;0.80;;;8.70;92.20;;;;;;10356576;28;20037;-65
2022/04/09 04:07:55;;;;;;;3.45;0.55;;;8.50;92.20;;;;;;10359660;28;20038;-66
2022/04/09 04:12:56;;;;;;;1.27;0.40;;;8.50;92.20;;;;;;10369346;28;20392;-74
2022/04/09 04:17:57;;;;;;;5.68;0.70;;;8.50;92.20;;;;;;10353646;28;20014;-73
2022/04/09 04:22:58;;;;;;;2.75;0.70;;;8.50;92.20;;;;;;10350964;28;20060;-70
2022/04/09 04:27:59;;;;;;;1.77;0.50;;;8.50;92.20;;;;;;10355071;28;20069;-72
2022/04/09 04:33:01;;;;;;;2.90;0.68;;;8.50;92.20;;;;;;10365913;28;20132;-64
2022/04/09 04:38:02;;;;;;;1.45;0.50;;;8.50;92.20;;;;;;10364958;28;20113;-74
2022/04/09 04:43:02;;;;;;;1.75;1.10;;;8.40;92.20;;;;;;10364874;28;20402;-68
2022/04/09 04:48:03;;;;;;;0.65;0.40;;;8.40;92.20;;;;;;10364292;28;20120;-76
2022/04/09 04:53:04;;;;;;;4.28;0.60;;;8.40;92.20;;;;;;10364221;28;20506;-76
2022/04/09 04:58:05;;;;;;;7.30;0.90;;;8.40;92.20;;;;;;10348747;28;20026;-76
2022/04/09 05:03:06;;;;;;;2.65;0.50;;;8.40;92.20;;;;;;10352704;28;20060;-77
2022/04/09 05:08:09;;;;;;;3.90;0.73;;;8.40;92.20;;;;;;10357496;28;20077;-64
2022/04/09 05:13:09;;;;;;;1.85;0.50;;;8.40;92.20;;;;;;10368789;28;20037;-76
2022/04/09 05:18:10;;;;;;;1.00;0.52;;;8.40;92.20;;;;;;10350305;28;20048;-73
2022/04/09 05:23:10;;;;;;;2.50;0.75;;;8.40;92.20;;;;;;10348696;28;20445;-73
2022/04/09 05:28:11;;;;;;;2.70;0.63;;;8.40;92.20;;;;;;10348031;28;20046;-65
2022/04/09 05:33:12;;;;;;;2.47;0.40;;;8.50;92.30;;;;;;10343799;28;20030;-75
2022/04/09 05:38:13;;;;;;;3.00;0.60;;;8.60;92.30;;;;;;10360077;28;20034;-73
2022/04/09 05:43:14;;;;;;;4.05;0.60;;;8.40;92.20;;;;;;10363123;28;20137;-77
2022/04/09 05:48:14;;;;;;;5.55;1.05;;;8.40;92.20;;;;;;10351764;28;20022;-71
2022/04/09 05:53:15;;;;;;;1.38;0.57;;;8.50;92.20;;;;;;10353018;28;20037;-68
2022/04/09 05:58:16;;;;;;;1.55;0.60;;;8.40;92.20;;;;;;10355056;28;20561;-65
2022/04/09 06:03:17;;;;;;;5.22;0.70;;;8.50;92.20;;;;;;10344266;28;20046;-65
2022/04/09 06:08:18;;;;;;;2.17;0.70;;;8.50;92.20;;;;;;10355922;28;20030;-74
2022/04/09 06:13:19;;;;;;;1.70;0.63;;;8.60;92.10;;;;;;10368323;28;20278;-68
2022/04/09 06:18:20;;;;;;;3.25;1.23;;;8.60;92.10;;;;;;10346907;28;20025;-64
2022/04/09 06:23:21;;;;;;;0.98;0.50;;;8.60;92.10;;;;;;10347733;28;20053;-66
2022/04/09 06:28:21;;;;;;;1.77;0.65;;;8.60;92.10;;;;;;10351388;28;20050;-63
2022/04/09 06:33:22;;;;;;;3.22;0.50;;;8.60;92.20;;;;;;10361727;28;20555;-68
2022/04/09 06:38:26;;;;;;;4.93;0.93;;;8.60;92.20;;;;;;10361545;28;20022;-71
2022/04/09 06:43:27;;;;;;;1.25;0.52;;;8.60;92.20;;;;;;10360091;28;20493;-70
2022/04/09 06:48:27;;;;;;;2.45;0.60;;;8.60;92.20;;;;;;10365325;28;20029;-71
2022/04/09 06:53:28;;;;;;;3.85;0.50;;;8.60;92.20;;;;;;10368956;28;20067;-71
2022/04/09 06:58:29;;;;;;;2.58;0.68;;;8.60;92.20;;;;;;10350185;28;20026;-66
2022/04/09 07:03:30;;;;;;;3.83;0.50;;;8.70;92.20;;;;;;10354510;28;20041;-67
2022/04/09 07:08:30;;;;;;;1.73;0.50;;;8.80;92.20;;;;;;10366115;28;20267;-61
2022/04/09 07:13:31;;;;;;;1.88;0.57;;;8.90;92.00;;;;;;10367668;28;20041;-65
2022/04/09 07:18:32;;;;;;;2.78;0.50;;;8.90;92.00;;;;;;10372569;28;20032;-72
2022/04/09 07:23:33;;;;;;;2.30;0.70;;;8.80;92.00;;;;;;10364395;28;20050;-71
2022/04/09 07:28:35;;;;;;;2.63;0.60;;;8.90;92.10;;;;;;10362941;28;20057;-70
2022/04/09 07:33:35;;;;;;;1.63;0.50;;;9.00;92.20;;;;;;10368323;28;20554;-69
2022/04/09 07:38:36;;;;;;;2.92;0.80;;;8.50;92.10;;;;;;10358544;28;20061;-70
2022/04/09 07:43:37;;;;;;;0.85;0.35;;;8.90;92.10;;;;;;10360355;28;20045;-62
2022/04/09 07:48:38;;;;;;;3.40;0.60;;;9.00;92.20;;;;;;10371742;28;20033;-72
2022/04/09 07:53:38;;;;;;;2.80;0.57;;;9.10;92.10;;;;;;10362171;28;20029;-71
2022/04/09 07:58:39;;;;;;;1.00;0.50;;;9.10;92.10;;;;;;10361793;28;20056;-71
2022/04/09 08:03:40;;;;;;;1.17;0.50;;;9.20;92.00;;;;;;10360811;28;20044;-72
2022/04/09 08:08:41;;;;;;;2.05;0.63;;;9.20;92.10;;;;;;10361979;28;20022;-64
2022/04/09 08:13:41;;;;;;;3.70;0.85;;;9.20;92.00;;;;;;10363114;28;20113;-59
2022/04/09 08:18:42;;;;;;;2.25;0.88;;;9.20;92.00;;;;;;10347122;28;20064;-59
2022/04/09 08:23:43;;;;;;;2.88;0.52;;;9.30;92.00;;;;;;10360274;28;20492;-59
2022/04/09 08:28:43;;;;;;;4.70;0.52;;;9.30;92.00;;;;;;10357372;28;20048;-63
2022/04/09 08:33:44;;;;;;;2.08;0.68;;;9.30;92.00;;;;;;10355490;28;20049;-62
2022/04/09 08:38:45;;;;;;;3.35;0.52;;;9.40;92.00;;;;;;10358314;28;20039;-73
2022/04/09 08:43:45;;;;;;;1.33;0.65;;;9.50;92.00;;;;;;10358072;28;20029;-69
2022/04/09 08:48:47;;;;;;;4.80;0.52;;;9.40;92.00;;;;;;10359231;28;20025;-70
2022/04/09 08:53:49;;;;;;;1.92;0.50;;;9.40;92.00;;;;;;10364565;28;20026;-68
2022/04/09 08:58:50;;;;;;;1.80;0.77;;;9.30;92.10;;;;;;10344066;28;20381;-67
2022/04/09 09:03:51;;;;;;;2.58;0.75;;;9.50;92.20;;;;;;10354720;28;20038;-59
2022/04/09 09:08:52;;;;;;;1.88;0.57;;;9.30;92.20;;;;;;10368214;28;20038;-76
2022/04/09 09:13:55;;;;;;;4.03;0.70;;;9.30;92.50;;;;;;10367984;28;20098;-78
2022/04/09 09:18:59;;;;;;;2.50;0.60;;;9.40;92.20;;;;;;10355815;28;20080;-74
2022/04/09 09:24:18;;;;;;;2.70;0.70;;;9.50;92.20;;;;;;10350316;28;20029;-71
2022/04/09 09:29:29;;;;;;;3.33;0.88;;;9.60;92.20;;;;;;10359934;28;20057;-71
2022/04/09 09:34:30;;;;;;;3.15;0.80;;;9.70;92.10;;;;;;10364847;28;20515;-72
2022/04/09 09:39:34;;;;;;;3.40;0.77;;;9.70;92.10;;;;;;10364940;28;20447;-71
2022/04/09 09:44:42;;;;;;;3.33;0.77;;;9.70;92.10;;;;;;10349467;28;20529;-75
